Time;durP1;ratioP1;P1;durP2;ratioP2;P2;SDS_P1;SDS_P2;PMS_P1;PMS_P2;Temp;Humidity;BMP_temperature;BMP_pressure;BME280_temperature;BME280_humidity;BME280_pressure;Samples;Min_cycle;Max_cycle;Signal;HPM_P1;HPM_P2
2023/01/23 00:02:58;;;;;;;13.83;8.73;;;;;;;1.85;100.00;103599.53;10483738;28;20041;-72
2023/01/23 00:07:58;;;;;;;16.00;9.47;;;;;;;1.86;100.00;103593.09;10457157;28;20056;-72
2023/01/23 00:12:59;;;;;;;12.05;8.07;;;;;;;1.88;100.00;103605.56;10500854;28;20029;-72
2023/01/23 00:17:59;;;;;;;14.03;7.60;;;;;;;1.78;100.00;103589.19;10502905;28;20404;-73
2023/01/23 00:23:00;;;;;;;13.80;7.70;;;;;;;1.88;100.00;103593.81;10504512;28;20029;-72
2023/01/23 00:28:00;;;;;;;13.32;8.52;;;;;;;1.77;100.00;103582.00;10503579;28;20040;-71
2023/01/23 00:33:01;;;;;;;15.98;7.75;;;;;;;1.89;100.00;103592.84;10501774;28;20041;-72
2023/01/23 00:38:01;;;;;;;16.25;8.45;;;;;;;1.88;100.00;103593.81;10479347;28;20045;-72
2023/01/23 00:43:02;;;;;;;16.57;8.73;;;;;;;1.89;100.00;103595.56;10461111;28;20025;-71
2023/01/23 00:48:03;;;;;;;17.95;8.00;;;;;;;1.90;100.00;103594.56;10460284;28;20036;-72
2023/01/23 00:53:03;;;;;;;17.27;8.80;;;;;;;1.89;100.00;103622.72;10503027;28;20090;-72
2023/01/23 00:58:04;;;;;;;18.52;10.20;;;;;;;1.88;100.00;103594.69;10495315;28;20052;-72
2023/01/23 01:03:04;;;;;;;15.60;9.88;;;;;;;1.77;100.00;103576.56;10458245;28;20040;-72
2023/01/23 01:08:05;;;;;;;22.73;9.35;;;;;;;1.88;100.00;103599.25;10442172;28;20123;-72
2023/01/23 01:13:05;;;;;;;13.00;8.43;;;;;;;1.89;100.00;103598.28;10465949;28;20039;-72
2023/01/23 01:18:06;;;;;;;15.45;9.05;;;;;;;1.90;100.00;103602.69;10502444;28;20036;-72
2023/01/23 01:23:06;;;;;;;15.63;9.77;;;;;;;1.89;100.00;103609.13;10502025;28;20049;-69
2023/01/23 01:28:07;;;;;;;18.07;10.00;;;;;;;1.80;100.00;103592.63;10498491;28;20044;-72
2023/01/23 01:33:08;;;;;;;11.90;8.77;;;;;;;1.79;100.00;103590.03;10482437;28;20508;-72
2023/01/23 01:38:08;;;;;;;18.10;10.10;;;;;;;1.90;100.00;103602.69;10482046;28;20033;-72
2023/01/23 01:43:17;;;;;;;14.68;9.07;;;;;;;1.89;100.00;103595.56;10482249;28;20037;-73
2023/01/23 01:48:18;;;;;;;15.32;9.90;;;;;;;1.81;100.00;103588.91;10498545;28;20059;-72
2023/01/23 01:53:19;;;;;;;17.63;9.52;;;;;;;1.82;100.00;103587.06;10489256;28;20420;-72
2023/01/23 01:58:20;;;;;;;19.40;9.43;;;;;;;1.78;100.00;103583.75;10481255;28;20052;-72
2023/01/23 02:03:20;;;;;;;14.10;8.95;;;;;;;1.80;100.00;103598.06;10470282;28;20072;-72
2023/01/23 02:09:01;;;;;;;18.10;10.13;;;;;;;1.81;100.00;103596.19;10439272;28;20045;-72
2023/01/23 02:14:01;;;;;;;15.37;10.50;;;;;;;1.77;100.00;103598.31;10472083;28;20064;-71
2023/01/23 02:19:03;;;;;;;17.42;10.13;;;;;;;1.78;100.00;103605.47;10499457;28;20102;-72
2023/01/23 02:24:19;;;;;;;15.70;10.10;;;;;;;1.78;100.00;103621.78;10462180;28;20048;-72
2023/01/23 02:29:19;;;;;;;17.83;10.10;;;;;;;1.77;100.00;103632.75;10468170;28;20036;-72
2023/01/23 02:34:21;;;;;;;16.40;10.23;;;;;;;1.74;100.00;103630.31;10488735;28;20096;-72
2023/01/23 02:39:22;;;;;;;19.57;10.37;;;;;;;1.74;100.00;103625.72;10481411;28;20044;-72
2023/01/23 02:44:26;;;;;;;21.93;10.87;;;;;;;1.75;100.00;103629.31;10497520;28;20039;-72
2023/01/23 02:49:27;;;;;;;18.23;11.02;;;;;;;1.73;100.00;103623.13;10479516;28;20048;-72
2023/01/23 02:54:27;;;;;;;21.27;11.57;;;;;;;1.75;100.00;103632.03;10482999;28;20477;-71
2023/01/23 03:04:47;;;;;;;17.58;10.77;;;;;;;1.73;100.00;103651.16;10456857;28;20425;-70
2023/01/23 03:09:48;;;;;;;22.90;10.43;;;;;;;1.58;100.00;103628.84;10457553;28;20041;-71
2023/01/23 03:14:53;;;;;;;19.65;10.85;;;;;;;1.73;100.00;103662.00;10478021;28;20040;-71
2023/01/23 03:19:56;;;;;;;18.65;10.25;;;;;;;1.73;100.00;103656.59;10496493;28;20063;-71
2023/01/23 03:24:57;;;;;;;20.50;9.97;;;;;;;1.72;100.00;103665.75;10497543;28;20041;-72
2023/01/23 03:30:14;;;;;;;16.60;10.90;;;;;;;1.71;100.00;103669.44;10491798;28;20038;-71
2023/01/23 03:35:19;;;;;;;17.85;11.48;;;;;;;1.70;100.00;103670.44;10506711;28;20032;-71
2023/01/23 03:45:40;;;;;;;16.77;11.07;;;;;;;1.64;100.00;103657.38;10504154;28;20047;-71
2023/01/23 03:50:41;;;;;;;18.90;10.47;;;;;;;1.70;100.00;103669.56;10460123;28;20661;-71
2023/01/23 03:55:44;;;;;;;19.27;11.20;;;;;;;1.70;100.00;103658.72;10492381;28;20504;-71
2023/01/23 04:00:44;;;;;;;17.45;10.57;;;;;;;1.69;100.00;103659.69;10467905;28;20127;-71
2023/01/23 04:05:45;;;;;;;15.20;9.97;;;;;;;1.68;100.00;103658.84;10504143;28;20025;-71
2023/01/23 04:10:45;;;;;;;16.40;11.02;;;;;;;1.68;100.00;103653.41;10472878;28;20496;-71
2023/01/23 04:15:46;;;;;;;16.55;9.20;;;;;;;1.66;100.00;103659.97;10461822;28;20488;-72
2023/01/23 04:20:46;;;;;;;19.90;9.97;;;;;;;1.66;100.00;103678.97;10465524;28;20036;-72
2023/01/23 04:25:47;;;;;;;14.55;9.85;;;;;;;1.63;100.00;103671.91;10499781;28;20397;-71
2023/01/23 04:30:49;;;;;;;13.80;9.03;;;;;;;1.64;100.00;103679.09;10485196;28;20032;-71
2023/01/23 04:35:58;;;;;;;16.63;10.50;;;;;;;1.62;100.00;103670.19;10501739;28;20032;-71
2023/01/23 04:40:59;;;;;;;14.20;10.48;;;;;;;1.67;100.00;103673.38;10485021;28;20576;-71
2023/01/23 04:45:59;;;;;;;17.02;9.73;;;;;;;1.66;100.00;103709.69;10501203;28;20068;-71
2023/01/23 04:51:00;;;;;;;16.95;10.73;;;;;;;1.66;100.00;103682.53;10493410;28;20037;-71
2023/01/23 04:56:00;;;;;;;18.95;11.07;;;;;;;1.57;100.00;103676.03;10489834;28;20040;-71
2023/01/23 05:01:04;;;;;;;18.93;10.37;;;;;;;1.65;100.00;103697.09;10484336;28;20057;-71
2023/01/23 05:06:05;;;;;;;18.63;10.97;;;;;;;1.61;100.00;103706.47;10484282;28;20024;-71
2023/01/23 05:11:05;;;;;;;18.20;11.57;;;;;;;1.59;100.00;103709.34;10501963;28;20041;-71
2023/01/23 05:16:06;;;;;;;21.70;11.00;;;;;;;1.59;100.00;103711.16;10501576;28;20036;-72
2023/01/23 05:21:07;;;;;;;21.47;11.37;;;;;;;1.55;100.00;103718.72;10459928;28;20052;-71
2023/01/23 05:26:07;;;;;;;22.73;11.98;;;;;;;1.55;100.00;103724.16;10469829;28;20093;-79
2023/01/23 05:31:07;;;;;;;15.88;11.13;;;;;;;1.55;100.00;103720.56;10500341;28;20063;-80
2023/01/23 05:36:08;;;;;;;17.63;10.80;;;;;;;1.55;100.00;103718.72;10498657;28;20032;-78
2023/01/23 05:41:08;;;;;;;17.60;11.37;;;;;;;1.54;100.00;103718.84;10459709;28;20033;-79
2023/01/23 05:46:09;;;;;;;17.75;11.68;;;;;;;1.52;100.00;103720.81;10457482;28;20033;-72
2023/01/23 05:51:09;;;;;;;16.40;11.23;;;;;;;1.51;100.00;103713.66;10467441;28;20040;-80
2023/01/23 05:56:10;;;;;;;14.60;10.57;;;;;;;1.47;100.00;103704.03;10485436;28;20044;-79
2023/01/23 06:01:10;;;;;;;19.08;11.32;;;;;;;1.52;100.00;103712.69;10440665;28;20096;-81
2023/01/23 06:06:11;;;;;;;17.37;11.60;;;;;;;1.54;100.00;103710.69;10457873;28;20034;-80
2023/01/23 06:11:11;;;;;;;16.65;10.80;;;;;;;1.51;100.00;103709.09;10440080;28;20056;-80
2023/01/23 06:16:12;;;;;;;18.90;11.88;;;;;;;1.44;100.00;103693.44;10458567;28;20045;-80
2023/01/23 06:21:14;;;;;;;15.07;10.50;;;;;;;1.50;100.00;103717.38;10499018;28;20051;-80
2023/01/23 06:26:14;;;;;;;16.58;10.98;;;;;;;1.53;100.00;103722.53;10487674;28;20430;-80
2023/01/23 06:31:15;;;;;;;19.97;11.77;;;;;;;1.48;100.00;103719.34;10499450;28;20051;-80
2023/01/23 06:36:15;;;;;;;18.95;11.75;;;;;;;1.51;100.00;103738.09;10479930;28;20031;-80
2023/01/23 06:41:15;;;;;;;20.20;11.37;;;;;;;1.49;100.00;103734.63;10480928;28;20613;-80
2023/01/23 06:46:16;;;;;;;21.15;11.48;;;;;;;1.51;100.00;103743.50;10497314;28;20056;-80
2023/01/23 06:51:16;;;;;;;21.52;12.45;;;;;;;1.50;100.00;103736.38;10491308;28;20040;-79
2023/01/23 06:56:17;;;;;;;23.17;11.55;;;;;;;1.53;100.00;103755.13;10483880;28;20037;-79
2023/01/23 07:01:18;;;;;;;15.17;10.57;;;;;;;1.48;100.00;103751.91;10502832;28;20048;-79
2023/01/23 07:06:18;;;;;;;17.10;11.13;;;;;;;1.50;100.00;103763.53;10503639;28;20041;-79
2023/01/23 07:11:19;;;;;;;16.67;10.23;;;;;;;1.50;100.00;103768.94;10506671;28;20043;-80
2023/01/23 07:16:19;;;;;;;19.90;12.20;;;;;;;1.48;100.00;103771.78;10463433;28;20033;-80
2023/01/23 07:21:20;;;;;;;15.43;10.47;;;;;;;1.47;100.00;103764.63;10505372;28;20070;-80
2023/01/23 07:26:20;;;;;;;15.33;10.60;;;;;;;1.48;100.00;103770.94;10506777;28;20032;-80
2023/01/23 07:31:21;;;;;;;15.67;10.47;;;;;;;1.47;100.00;103774.63;10472788;28;20041;-73
2023/01/23 07:36:21;;;;;;;12.57;9.27;;;;;;;1.46;100.00;103772.91;10464696;28;20040;-79
2023/01/23 07:41:21;;;;;;;15.63;10.07;;;;;;;1.47;100.00;103780.03;10504490;28;20029;-80
2023/01/23 07:46:24;;;;;;;15.25;9.80;;;;;;;1.41;100.00;103782.28;10500478;28;20045;-80
2023/01/23 07:51:25;;;;;;;19.02;9.20;;;;;;;1.51;100.00;103792.38;10498277;28;20033;-80
2023/01/23 07:56:25;;;;;;;11.27;8.52;;;;;;;1.53;100.00;103785.88;10505115;28;20104;-80
2023/01/23 08:01:26;;;;;;;12.57;8.87;;;;;;;1.56;100.00;103784.75;10487064;28;20549;-80
2023/01/23 08:06:26;;;;;;;14.05;9.35;;;;;;;1.58;100.00;103793.63;10462625;28;20037;-81
2023/01/23 08:11:27;;;;;;;12.05;9.02;;;;;;;1.03;100.00;103705.75;10463092;28;20412;-79
2023/01/23 08:16:27;;;;;;;13.10;7.72;;;;;;;1.62;100.00;103811.41;10464927;28;20033;-80
2023/01/23 08:21:28;;;;;;;13.23;9.32;;;;;;;1.69;100.00;103822.66;10502572;28;20044;-79
2023/01/23 08:26:28;;;;;;;13.95;8.90;;;;;;;1.71;100.00;103816.09;10504360;28;20052;-78
2023/01/23 08:31:29;;;;;;;11.07;8.20;;;;;;;1.76;100.00;103807.59;10502212;28;20085;-77
2023/01/23 08:36:29;;;;;;;10.02;7.70;;;;;;;1.77;100.00;103810.16;10470300;28;20053;-80
2023/01/23 08:41:30;;;;;;;10.48;7.90;;;;;;;1.84;100.00;103810.56;10501029;28;20067;-80
2023/01/23 08:46:30;;;;;;;12.88;8.90;;;;;;;1.90;100.00;103814.59;10501907;28;20032;-80
2023/01/23 08:51:31;;;;;;;15.93;9.65;;;;;;;1.89;100.00;103804.75;10501605;28;20025;-80
2023/01/23 08:56:32;;;;;;;16.42;9.20;;;;;;;2.02;100.00;103830.78;10454510;28;20087;-79
2023/01/23 09:01:32;;;;;;;14.63;8.88;;;;;;;2.08;100.00;103832.13;10480344;28;20033;-79
2023/01/23 09:06:33;;;;;;;15.07;9.05;;;;;;;2.14;100.00;103833.50;10493219;28;20066;-79
2023/01/23 09:11:33;;;;;;;14.38;8.80;;;;;;;2.19;100.00;103837.56;10479433;28;20060;-80
2023/01/23 09:16:34;;;;;;;15.02;8.45;;;;;;;2.19;100.00;103843.00;10476896;28;20056;-71
2023/01/23 09:21:34;;;;;;;14.35;9.30;;;;;;;2.26;100.00;103854.22;10480014;28;20040;-80
2023/01/23 09:26:35;;;;;;;14.90;10.27;;;;;;;2.25;100.00;103841.63;10465520;28;20079;-80
2023/01/23 09:31:36;;;;;;;16.63;11.20;;;;;;;2.31;100.00;103853.84;10480127;28;20033;-80
2023/01/23 09:36:36;;;;;;;15.55;10.00;;;;;;;2.27;100.00;103844.22;10477592;28;20037;-79
2023/01/23 09:41:38;;;;;;;15.30;9.55;;;;;;;2.41;100.00;103843.94;10476562;28;20059;-78
2023/01/23 09:46:42;;;;;;;15.68;9.80;;;;;;;2.43;100.00;103848.25;10485264;28;20048;-79
2023/01/23 09:51:59;;;;;;;16.20;11.20;;;;;;;2.57;100.00;103868.88;10470601;28;20041;-79
2023/01/23 09:57:01;;;;;;;15.40;9.82;;;;;;;2.63;100.00;103868.38;10478939;28;20067;-79
2023/01/23 10:02:02;;;;;;;17.35;11.15;;;;;;;2.60;100.00;103856.88;10458585;28;20120;-79
2023/01/23 10:07:05;;;;;;;18.58;11.13;;;;;;;2.69;100.00;103855.22;10438559;28;20052;-79
2023/01/23 10:12:28;;;;;;;19.45;11.13;;;;;;;2.76;100.00;103861.91;10489359;28;20052;-79
2023/01/23 10:17:36;;;;;;;16.45;10.70;;;;;;;2.85;100.00;103862.97;10473516;28;20481;-72
2023/01/23 10:23:10;;;;;;;15.63;10.68;;;;;;;2.98;100.00;103861.81;10440644;28;20116;-78
2023/01/23 10:28:34;;;;;;;15.80;10.65;;;;;;;3.01;100.00;103861.53;10456568;28;20033;-79
2023/01/23 10:33:43;;;;;;;18.15;11.45;;;;;;;3.01;100.00;103858.81;10465284;28;20064;-78
2023/01/23 10:38:55;;;;;;;17.65;10.18;;;;;;;3.05;100.00;103859.41;10459290;28;20043;-80
2023/01/23 10:43:58;;;;;;;18.42;9.70;;;;;;;3.13;100.00;103858.78;10456270;28;20105;-80
2023/01/23 10:49:00;;;;;;;14.25;9.70;;;;;;;3.17;100.00;103855.66;10452527;28;20048;-80
2023/01/23 10:54:04;;;;;;;18.13;12.10;;;;;;;3.14;100.00;103855.94;10466192;28;20535;-80
2023/01/23 10:59:05;;;;;;;16.13;10.35;;;;;;;3.12;100.00;103836.13;10493821;28;20058;-80
2023/01/23 11:04:10;;;;;;;17.85;10.55;;;;;;;3.17;100.00;103854.78;10479914;28;20033;-79
2023/01/23 11:09:19;;;;;;;16.92;10.55;;;;;;;3.20;100.00;103865.41;10464456;28;20040;-80
2023/01/23 11:14:22;;;;;;;18.23;10.32;;;;;;;3.27;100.00;103865.75;10498494;28;20037;-81
2023/01/23 11:19:23;;;;;;;16.80;9.77;;;;;;;3.29;100.00;103866.47;10495513;28;20036;-81
2023/01/23 11:24:23;;;;;;;16.40;10.02;;;;;;;3.30;100.00;103860.88;10479163;28;20538;-78
2023/01/23 11:29:25;;;;;;;16.70;9.40;;;;;;;3.33;100.00;103859.75;10495260;28;20102;-80
2023/01/23 11:34:37;;;;;;;14.13;9.60;;;;;;;3.36;100.00;103854.91;10475756;28;20059;-79
2023/01/23 11:39:58;;;;;;;13.27;9.35;;;;;;;3.35;100.00;103858.66;10462384;28;20068;-79
2023/01/23 11:44:59;;;;;;;14.27;8.52;;;;;;;3.34;100.00;103851.47;10496057;28;20037;-79
2023/01/23 11:50:20;;;;;;;15.85;9.40;;;;;;;3.35;100.00;103852.31;10480825;28;20595;-79
2023/01/23 11:55:50;;;;;;;17.95;8.75;;;;;;;3.41;100.00;103852.66;10475165;28;20032;-79
2023/01/23 12:00:54;;;;;;;11.02;7.85;;;;;;;3.38;100.00;103852.91;10499996;28;20078;-79
2023/01/23 12:06:40;;;;;;;12.45;8.98;;;;;;;3.44;100.00;103857.84;10479238;28;20101;-79
2023/01/23 12:12:18;;;;;;;13.15;8.55;;;;;;;3.43;100.00;103853.41;10472522;28;20039;-78
2023/01/23 12:18:15;;;;;;;15.25;9.05;;;;;;;3.42;100.00;103857.09;10457555;28;20068;-79
2023/01/23 12:23:38;;;;;;;15.77;10.13;;;;;;;3.36;100.00;103840.44;10374230;28;20038;-77
2023/01/23 12:29:09;;;;;;;12.63;8.23;;;;;;;3.47;100.00;103850.38;10464013;28;20071;-81
2023/01/23 12:34:24;;;;;;;13.18;8.40;;;;;;;3.47;100.00;103855.84;10502891;28;20108;-80
2023/01/23 12:39:37;;;;;;;14.55;9.38;;;;;;;3.43;100.00;103850.69;10505013;28;20044;-81
2023/01/23 12:44:44;;;;;;;13.07;8.55;;;;;;;3.38;100.00;103847.47;10503465;28;20047;-80
2023/01/23 12:49:58;;;;;;;15.88;8.32;;;;;;;3.31;100.00;103857.19;10499106;28;20048;-86
2023/01/23 12:55:12;;;;;;;13.55;9.30;;;;;;;3.29;100.00;103858.28;10457538;28;20049;-86
2023/01/23 13:00:37;;;;;;;15.77;8.68;;;;;;;3.23;100.00;103854.25;10460367;28;20045;-86
2023/01/23 13:06:00;;;;;;;12.45;8.63;;;;;;;3.22;100.00;103853.41;10460349;28;20041;-87
2023/01/23 13:16:29;;;;;;;16.63;8.98;;;;;;;3.20;100.00;103863.56;10487275;28;20039;-85
2023/01/23 13:26:48;;;;;;;16.25;9.07;;;;;;;2.79;100.00;103812.66;10486047;28;20052;-85
2023/01/23 13:31:51;;;;;;;14.65;10.00;;;;;;;3.12;100.00;103867.91;10481788;28;20040;-85
2023/01/23 13:36:52;;;;;;;16.17;10.48;;;;;;;3.10;100.00;103864.47;10478687;28;20081;-85
2023/01/23 13:42:11;;;;;;;16.60;10.18;;;;;;;3.03;100.00;103864.97;10449265;28;20033;-85
2023/01/23 13:58:03;;;;;;;15.13;10.85;;;;;;;3.09;100.00;103816.47;10448538;28;20519;-83
2023/01/23 14:08:48;;;;;;;16.25;10.20;;;;;;;3.26;100.00;103809.56;10497917;28;20047;-85
2023/01/23 14:13:49;;;;;;;16.45;8.98;;;;;;;3.29;100.00;103796.56;10499152;28;20037;-85
2023/01/23 14:18:51;;;;;;;13.02;8.35;;;;;;;3.18;100.00;103770.28;10474920;28;20049;-85
2023/01/23 14:23:56;;;;;;;12.98;9.10;;;;;;;3.24;100.00;103785.19;10481980;28;20047;-85
2023/01/23 14:29:01;;;;;;;15.15;9.85;;;;;;;3.18;100.00;103769.38;10463871;28;20037;-85
2023/01/23 14:34:12;;;;;;;14.82;9.38;;;;;;;3.27;100.00;103789.53;10464145;28;20056;-85
2023/01/23 14:39:17;;;;;;;17.13;11.48;;;;;;;3.25;100.00;103800.53;10489392;28;20036;-84
2023/01/23 14:44:22;;;;;;;16.40;9.77;;;;;;;3.23;100.00;103807.97;10452376;28;20067;-85
2023/01/23 14:49:25;;;;;;;14.32;9.57;;;;;;;3.15;100.00;103807.78;10478015;28;20048;-84
2023/01/23 14:54:26;;;;;;;12.55;8.90;;;;;;;3.17;100.00;103822.13;10461058;28;20033;-83
2023/01/23 14:59:29;;;;;;;13.63;10.02;;;;;;;3.13;100.00;103824.25;10468332;28;20028;-85
2023/01/23 15:04:30;;;;;;;14.18;9.80;;;;;;;3.08;100.00;103844.69;10498805;28;20041;-81
2023/01/23 15:09:36;;;;;;;18.73;9.63;;;;;;;2.94;100.00;103822.25;10499002;28;20075;-85
2023/01/23 15:14:37;;;;;;;14.88;9.82;;;;;;;2.97;100.00;103830.13;10473330;28;20059;-83
2023/01/23 15:19:38;;;;;;;18.83;9.95;;;;;;;2.83;100.00;103814.13;10495210;28;20464;-84
2023/01/23 15:24:39;;;;;;;14.70;9.85;;;;;;;2.89;100.00;103823.63;10462551;28;20079;-84
2023/01/23 15:29:39;;;;;;;14.25;9.80;;;;;;;2.82;100.00;103812.41;10483780;28;20529;-84
2023/01/23 15:34:40;;;;;;;16.80;11.07;;;;;;;2.84;100.00;103821.28;10478779;28;20485;-84
2023/01/23 15:39:49;;;;;;;15.50;11.23;;;;;;;2.78;100.00;103827.25;10448805;28;20041;-84
2023/01/23 15:44:50;;;;;;;17.05;11.02;;;;;;;2.63;100.00;103818.53;10500082;28;20496;-84
2023/01/23 15:49:51;;;;;;;16.70;10.93;;;;;;;2.69;100.00;103839.78;10455340;28;20044;-84
2023/01/23 15:54:57;;;;;;;17.45;10.27;;;;;;;2.66;100.00;103844.63;10462204;28;20488;-83
2023/01/23 15:59:59;;;;;;;16.05;11.20;;;;;;;2.63;100.00;103852.03;10472356;28;20056;-84
2023/01/23 16:05:00;;;;;;;17.75;10.43;;;;;;;2.61;100.00;103847.72;10464841;28;20048;-84
2023/01/23 16:10:31;;;;;;;17.38;10.80;;;;;;;2.57;100.00;103860.72;10484903;28;20127;-84
2023/01/23 16:15:33;;;;;;;15.77;9.88;;;;;;;2.55;100.00;103856.41;10479727;28;20424;-83
2023/01/23 16:20:37;;;;;;;16.55;11.45;;;;;;;2.49;100.00;103841.44;10483615;28;20040;-84
2023/01/23 16:25:38;;;;;;;15.30;10.45;;;;;;;2.36;100.00;103838.03;10485929;28;20051;-84
2023/01/23 16:30:38;;;;;;;16.55;11.13;;;;;;;2.42;100.00;103859.28;10470569;28;20508;-84
2023/01/23 16:35:39;;;;;;;17.48;11.48;;;;;;;2.38;100.00;103855.09;10484356;28;20036;-84
2023/01/23 16:40:39;;;;;;;19.25;10.75;;;;;;;2.34;100.00;103851.75;10467868;28;20146;-84
2023/01/23 16:45:40;;;;;;;19.30;11.20;;;;;;;2.31;100.00;103860.16;10482581;28;20029;-84
2023/01/23 16:50:42;;;;;;;19.50;12.70;;;;;;;2.22;100.00;103848.19;10481384;28;20138;-83
2023/01/23 16:55:43;;;;;;;19.17;12.32;;;;;;;2.24;100.00;103849.94;10462921;28;20551;-84
2023/01/23 17:00:43;;;;;;;18.95;11.13;;;;;;;2.29;100.00;103874.84;10449240;28;20036;-84
2023/01/23 17:05:44;;;;;;;18.97;12.63;;;;;;;2.27;100.00;103874.97;10480511;28;20491;-84
2023/01/23 17:10:50;;;;;;;17.95;12.18;;;;;;;2.14;100.00;103864.25;10479803;28;20068;-83
2023/01/23 17:15:52;;;;;;;19.17;11.15;;;;;;;2.19;100.00;103875.63;10463604;28;20040;-83
2023/01/23 17:20:53;;;;;;;16.40;9.98;;;;;;;2.13;100.00;103875.25;10462554;28;20492;-83
2023/01/23 17:25:54;;;;;;;16.98;11.40;;;;;;;1.61;100.00;103793.38;10462541;28;20641;-82
2023/01/23 17:30:56;;;;;;;16.05;10.73;;;;;;;2.25;100.00;103912.31;10480277;28;20064;-81
2023/01/23 17:35:57;;;;;;;16.65;10.93;;;;;;;2.27;100.00;103912.19;10440112;28;20033;-80
2023/01/23 17:40:57;;;;;;;18.77;12.35;;;;;;;2.26;100.00;103908.59;10457663;28;20029;-81
2023/01/23 17:45:58;;;;;;;18.75;11.43;;;;;;;2.27;100.00;103901.31;10489699;28;20044;-81
2023/01/23 17:50:58;;;;;;;17.67;11.50;;;;;;;2.22;100.00;103913.41;10493909;28;20048;-81
2023/01/23 17:55:58;;;;;;;15.05;10.32;;;;;;;2.23;100.00;103903.41;10481572;28;20032;-81
2023/01/23 18:00:59;;;;;;;15.18;10.43;;;;;;;2.20;100.00;103914.53;10499426;28;20037;-81
2023/01/23 18:05:59;;;;;;;18.40;10.40;;;;;;;2.20;100.00;103909.97;10468233;28;20094;-77
2023/01/23 18:11:00;;;;;;;19.25;11.15;;;;;;;2.19;100.00;103918.22;10498684;28;20052;-81
2023/01/23 18:16:19;;;;;;;18.05;12.45;;;;;;;2.18;100.00;103914.66;10463538;28;20090;-82
2023/01/23 18:21:20;;;;;;;14.57;9.70;;;;;;;2.18;100.00;103916.50;10479561;28;20076;-82
2023/01/23 18:26:58;;;;;;;15.18;9.52;;;;;;;2.17;100.00;103921.09;10497126;28;20471;-81
2023/01/23 18:32:22;;;;;;;16.95;11.10;;;;;;;2.17;100.00;103925.66;10497713;28;20045;-83
2023/01/23 18:37:50;;;;;;;16.17;10.85;;;;;;;2.16;100.00;103924.78;10484531;28;20109;-79
2023/01/23 18:42:57;;;;;;;15.55;10.05;;;;;;;2.14;100.00;103921.31;10485022;28;20136;-82
2023/01/23 18:47:58;;;;;;;13.50;9.67;;;;;;;2.08;100.00;103915.53;10470383;28;20547;-82
2023/01/23 18:53:20;;;;;;;16.55;11.48;;;;;;;2.12;100.00;103920.59;10452487;28;20105;-81
2023/01/23 18:58:48;;;;;;;16.08;10.50;;;;;;;2.11;100.00;103918.88;10468056;28;20029;-81
2023/01/23 19:03:49;;;;;;;14.93;10.02;;;;;;;2.11;100.00;103927.03;10459964;28;20060;-80
2023/01/23 19:08:50;;;;;;;15.68;9.57;;;;;;;2.05;100.00;103916.66;10453753;28;20544;-81
2023/01/23 19:14:12;;;;;;;17.83;10.57;;;;;;;2.07;100.00;103919.22;10457925;28;20112;-81
2023/01/23 19:19:46;;;;;;;14.25;9.25;;;;;;;1.64;100.00;103852.91;10494004;28;20040;-81
2023/01/23 19:24:47;;;;;;;16.50;10.65;;;;;;;2.01;100.00;103909.72;10422979;28;20123;-81
2023/01/23 19:29:47;;;;;;;12.88;9.52;;;;;;;2.06;100.00;103923.78;10494889;28;20048;-81
2023/01/23 19:34:48;;;;;;;14.05;9.77;;;;;;;2.03;100.00;103934.94;10497213;28;20539;-81
2023/01/23 19:39:48;;;;;;;15.80;10.30;;;;;;;2.01;100.00;103937.75;10496937;28;20523;-81
2023/01/23 19:44:48;;;;;;;18.45;10.60;;;;;;;2.02;100.00;103944.91;10449899;28;20029;-80
2023/01/23 19:49:49;;;;;;;14.95;10.00;;;;;;;2.05;100.00;103951.97;10457286;28;20037;-83
2023/01/23 19:54:49;;;;;;;16.60;10.95;;;;;;;2.02;100.00;103954.91;10459156;28;20040;-80
2023/01/23 19:59:50;;;;;;;18.20;11.93;;;;;;;2.02;100.00;103954.91;10453647;28;20056;-82
2023/01/23 20:04:50;;;;;;;19.13;10.70;;;;;;;2.00;100.00;103949.59;10452987;28;20111;-73
2023/01/23 20:09:51;;;;;;;17.50;11.63;;;;;;;1.98;100.00;103939.84;10459582;28;20051;-81
2023/01/23 20:14:51;;;;;;;16.95;11.48;;;;;;;2.01;100.00;103950.50;10463328;28;20037;-82
2023/01/23 20:19:52;;;;;;;17.93;12.37;;;;;;;1.98;100.00;103950.72;10463946;28;20127;-80
2023/01/23 20:24:52;;;;;;;15.30;10.88;;;;;;;1.85;100.00;103936.38;10475106;28;20040;-82
2023/01/23 20:29:53;;;;;;;18.70;11.93;;;;;;;2.00;100.00;103956.91;10496053;28;20110;-82
2023/01/23 20:34:54;;;;;;;19.55;12.57;;;;;;;1.92;100.00;103953.91;10461228;28;20048;-82
2023/01/23 20:39:54;;;;;;;21.15;12.50;;;;;;;2.00;100.00;103970.47;10462131;28;20092;-82
2023/01/23 20:44:55;;;;;;;19.48;12.70;;;;;;;2.00;100.00;103979.50;10472487;28;20036;-79
2023/01/23 20:49:55;;;;;;;19.17;12.73;;;;;;;1.99;100.00;103971.47;10499147;28;20064;-78
2023/01/23 20:54:55;;;;;;;20.48;13.77;;;;;;;2.00;100.00;103960.47;10502102;28;20041;-74
2023/01/23 20:59:56;;;;;;;21.77;13.40;;;;;;;2.02;100.00;103954.91;10501401;28;20052;-78
2023/01/23 21:04:56;;;;;;;19.35;13.13;;;;;;;1.99;100.00;103952.47;10471370;28;20041;-77
2023/01/23 21:09:57;;;;;;;25.63;12.90;;;;;;;1.89;100.00;103927.88;10459582;28;20041;-78
2023/01/23 21:14:59;;;;;;;20.33;12.93;;;;;;;1.98;100.00;103948.00;10457173;28;20033;-78
2023/01/23 21:20:00;;;;;;;21.00;13.15;;;;;;;1.98;100.00;103942.56;10462973;28;20100;-78
2023/01/23 21:25:01;;;;;;;21.15;14.00;;;;;;;1.97;100.00;103954.44;10497200;28;20072;-80
2023/01/23 21:30:02;;;;;;;26.20;14.57;;;;;;;1.96;100.00;103961.72;10494806;28;20045;-80
2023/01/23 21:35:02;;;;;;;22.73;13.07;;;;;;;1.98;100.00;103964.31;10495959;28;20045;-80
2023/01/23 21:40:03;;;;;;;25.75;14.90;;;;;;;1.96;100.00;103958.13;10466277;28;20112;-82
2023/01/23 21:45:04;;;;;;;25.13;13.82;;;;;;;1.62;100.00;103903.75;10500024;28;20052;-82
2023/01/23 21:50:05;;;;;;;26.17;14.05;;;;;;;1.97;100.00;103978.91;10498170;28;20035;-82
2023/01/23 21:55:06;;;;;;;23.17;15.32;;;;;;;1.98;100.00;103988.75;10500022;28;20021;-85
2023/01/23 22:05:26;;;;;;;27.90;14.65;;;;;;;1.97;100.00;103993.34;10480883;28;20067;-80
2023/01/23 22:10:27;;;;;;;27.00;16.23;;;;;;;2.00;100.00;104001.22;10496640;28;20033;-78
2023/01/23 22:15:27;;;;;;;28.45;16.25;;;;;;;2.00;100.00;104000.38;10498000;28;20033;-80
2023/01/23 22:20:28;;;;;;;26.60;15.90;;;;;;;2.02;100.00;103999.25;10459036;28;20053;-78
2023/01/23 22:25:28;;;;;;;25.73;16.63;;;;;;;2.02;100.00;104001.13;10454545;28;20087;-78
2023/01/23 22:30:29;;;;;;;33.55;16.45;;;;;;;2.01;100.00;104000.25;10472389;28;20040;-77
2023/01/23 22:35:29;;;;;;;24.20;16.02;;;;;;;2.02;100.00;103987.53;10496424;28;20032;-78
2023/01/23 22:40:30;;;;;;;27.08;15.82;;;;;;;1.95;100.00;103987.16;10498553;28;20032;-84
2023/01/23 22:45:30;;;;;;;28.33;16.33;;;;;;;2.00;100.00;103994.94;10498141;28;20024;-78
2023/01/23 22:50:30;;;;;;;30.55;17.40;;;;;;;1.94;100.00;103988.16;10471501;28;20044;-78
2023/01/23 22:55:31;;;;;;;31.45;16.40;;;;;;;2.00;100.00;103997.66;10495871;28;20033;-79
2023/01/23 23:00:31;;;;;;;31.73;15.45;;;;;;;2.00;100.00;103994.94;10476302;28;20049;-80
2023/01/23 23:05:32;;;;;;;28.38;15.75;;;;;;;2.00;100.00;103997.66;10498422;28;20029;-79
2023/01/23 23:10:32;;;;;;;32.17;17.27;;;;;;;2.00;100.00;103989.50;10497629;28;20040;-78
2023/01/23 23:15:33;;;;;;;31.23;19.20;;;;;;;1.98;100.00;103999.63;10497437;28;20040;-78
2023/01/23 23:20:34;;;;;;;27.90;17.27;;;;;;;2.00;100.00;103994.94;10494845;28;20043;-78
2023/01/23 23:25:34;;;;;;;27.77;17.83;;;;;;;1.99;100.00;103983.22;10483648;28;20401;-79
2023/01/23 23:30:35;;;;;;;38.03;19.25;;;;;;;1.98;100.00;103991.47;10497454;28;20033;-78
2023/01/23 23:35:35;;;;;;;30.55;19.00;;;;;;;1.98;100.00;103981.47;10497143;28;20036;-78